sensor_id;sensor_type;location;lat;lon;timestamp;P1;durP1;ratioP1;P2;durP2;ratioP2
57319;SDS011;43158;51.026;18.190;2022-11-02T00:00:30;25.80;;;21.10;;
57319;SDS011;43158;51.026;18.190;2022-11-02T00:02:58;23.90;;;20.80;;
57319;SDS011;43158;51.026;18.190;2022-11-02T00:05:24;26.40;;;21.50;;
57319;SDS011;43158;51.026;18.190;2022-11-02T00:07:51;25.10;;;21.50;;
57319;SDS011;43158;51.026;18.190;2022-11-02T00:10:18;25.80;;;23.20;;
57319;SDS011;43158;51.026;18.190;2022-11-02T00:12:45;23.10;;;20.60;;
57319;SDS011;43158;51.026;18.190;2022-11-02T00:15:12;26.20;;;22.80;;
57319;SDS011;43158;51.026;18.190;2022-11-02T00:17:39;22.10;;;19.90;;
57319;SDS011;43158;51.026;18.190;2022-11-02T00:20:06;23.40;;;20.90;;
57319;SDS011;43158;51.026;18.190;2022-11-02T00:22:32;21.90;;;19.70;;
57319;SDS011;43158;51.026;18.190;2022-11-02T00:24:59;22.50;;;19.60;;
57319;SDS011;43158;51.026;18.190;2022-11-02T00:27:29;22.90;;;20.10;;
57319;SDS011;43158;51.026;18.190;2022-11-02T00:29:57;23.80;;;21.20;;
57319;SDS011;43158;51.026;18.190;2022-11-02T00:32:24;24.90;;;22.40;;
57319;SDS011;43158;51.026;18.190;2022-11-02T00:34:51;25.70;;;21.50;;
57319;SDS011;43158;51.026;18.190;2022-11-02T00:37:18;24.10;;;21.60;;
57319;SDS011;43158;51.026;18.190;2022-11-02T00:39:45;24.60;;;22.20;;
57319;SDS011;43158;51.026;18.190;2022-11-02T00:42:11;26.90;;;24.00;;
57319;SDS011;43158;51.026;18.190;2022-11-02T00:44:38;25.00;;;22.30;;
57319;SDS011;43158;51.026;18.190;2022-11-02T00:47:04;27.60;;;22.10;;
57319;SDS011;43158;51.026;18.190;2022-11-02T00:49:31;24.40;;;21.80;;
57319;SDS011;43158;51.026;18.190;2022-11-02T00:51:57;24.30;;;21.60;;
57319;SDS011;43158;51.026;18.190;2022-11-02T00:54:24;25.20;;;22.50;;
57319;SDS011;43158;51.026;18.190;2022-11-02T00:56:50;23.30;;;20.90;;
57319;SDS011;43158;51.026;18.190;2022-11-02T00:59:16;24.10;;;20.20;;
57319;SDS011;43158;51.026;18.190;2022-11-02T01:01:42;22.40;;;20.20;;
57319;SDS011;43158;51.026;18.190;2022-11-02T01:04:22;24.80;;;22.30;;
57319;SDS011;43158;51.026;18.190;2022-11-02T01:06:48;24.10;;;21.00;;
57319;SDS011;43158;51.026;18.190;2022-11-02T01:09:15;21.70;;;19.40;;
57319;SDS011;43158;51.026;18.190;2022-11-02T01:11:41;22.80;;;20.60;;
57319;SDS011;43158;51.026;18.190;2022-11-02T01:14:08;24.50;;;21.80;;
57319;SDS011;43158;51.026;18.190;2022-11-02T01:16:37;24.30;;;21.60;;
57319;SDS011;43158;51.026;18.190;2022-11-02T01:19:04;24.30;;;21.80;;
57319;SDS011;43158;51.026;18.190;2022-11-02T01:21:30;22.70;;;20.30;;
57319;SDS011;43158;51.026;18.190;2022-11-02T01:23:57;22.00;;;19.00;;
57319;SDS011;43158;51.026;18.190;2022-11-02T01:26:24;22.60;;;19.20;;
57319;SDS011;43158;51.026;18.190;2022-11-02T01:28:51;22.40;;;20.10;;
57319;SDS011;43158;51.026;18.190;2022-11-02T01:31:19;25.30;;;21.00;;
57319;SDS011;43158;51.026;18.190;2022-11-02T01:33:45;22.00;;;19.90;;
57319;SDS011;43158;51.026;18.190;2022-11-02T01:36:13;26.10;;;23.00;;
57319;SDS011;43158;51.026;18.190;2022-11-02T01:38:40;26.00;;;23.20;;
57319;SDS011;43158;51.026;18.190;2022-11-02T01:41:07;25.30;;;22.70;;
57319;SDS011;43158;51.026;18.190;2022-11-02T01:43:36;25.30;;;22.70;;
57319;SDS011;43158;51.026;18.190;2022-11-02T01:54:26;22.90;;;20.60;;
57319;SDS011;43158;51.026;18.190;2022-11-02T01:57:02;21.20;;;18.20;;
57319;SDS011;43158;51.026;18.190;2022-11-02T01:59:32;24.00;;;21.50;;
57319;SDS011;43158;51.026;18.190;2022-11-02T02:02:03;22.30;;;20.00;;
57319;SDS011;43158;51.026;18.190;2022-11-02T02:04:31;23.20;;;20.30;;
57319;SDS011;43158;51.026;18.190;2022-11-02T02:06:57;24.00;;;20.00;;
57319;SDS011;43158;51.026;18.190;2022-11-02T02:09:24;22.90;;;19.90;;
57319;SDS011;43158;51.026;18.190;2022-11-02T02:11:51;24.80;;;22.30;;
57319;SDS011;43158;51.026;18.190;2022-11-02T02:14:17;23.80;;;19.90;;
57319;SDS011;43158;51.026;18.190;2022-11-02T02:19:51;22.80;;;20.40;;
57319;SDS011;43158;51.026;18.190;2022-11-02T02:22:45;23.00;;;20.50;;
57319;SDS011;43158;51.026;18.190;2022-11-02T02:30:44;24.40;;;21.80;;
57319;SDS011;43158;51.026;18.190;2022-11-02T02:33:13;24.80;;;22.20;;
57319;SDS011;43158;51.026;18.190;2022-11-02T02:35:47;24.50;;;21.30;;
57319;SDS011;43158;51.026;18.190;2022-11-02T02:43:36;26.60;;;23.00;;
57319;SDS011;43158;51.026;18.190;2022-11-02T02:48:54;30.20;;;25.10;;
57319;SDS011;43158;51.026;18.190;2022-11-02T02:51:25;26.60;;;23.90;;
57319;SDS011;43158;51.026;18.190;2022-11-02T02:54:05;28.70;;;23.30;;
57319;SDS011;43158;51.026;18.190;2022-11-02T02:56:38;27.00;;;23.70;;
57319;SDS011;43158;51.026;18.190;2022-11-02T03:01:46;26.90;;;23.90;;
57319;SDS011;43158;51.026;18.190;2022-11-02T03:04:13;26.50;;;22.80;;
57319;SDS011;43158;51.026;18.190;2022-11-02T03:06:43;29.00;;;25.90;;
57319;SDS011;43158;51.026;18.190;2022-11-02T03:09:33;27.00;;;24.10;;
57319;SDS011;43158;51.026;18.190;2022-11-02T03:14:43;27.50;;;23.20;;
57319;SDS011;43158;51.026;18.190;2022-11-02T03:17:26;29.60;;;26.50;;
57319;SDS011;43158;51.026;18.190;2022-11-02T03:23:31;25.40;;;22.80;;
57319;SDS011;43158;51.026;18.190;2022-11-02T03:26:05;24.70;;;21.90;;
57319;SDS011;43158;51.026;18.190;2022-11-02T03:36:39;23.70;;;21.20;;
57319;SDS011;43158;51.026;18.190;2022-11-02T03:39:10;22.50;;;20.10;;
57319;SDS011;43158;51.026;18.190;2022-11-02T03:41:38;24.10;;;21.60;;
57319;SDS011;43158;51.026;18.190;2022-11-02T03:44:06;28.40;;;23.20;;
57319;SDS011;43158;51.026;18.190;2022-11-02T03:46:35;25.30;;;22.60;;
57319;SDS011;43158;51.026;18.190;2022-11-02T03:49:04;25.70;;;23.00;;
57319;SDS011;43158;51.026;18.190;2022-11-02T03:51:31;22.80;;;19.90;;
57319;SDS011;43158;51.026;18.190;2022-11-02T03:56:33;23.00;;;20.60;;
57319;SDS011;43158;51.026;18.190;2022-11-02T03:59:00;25.70;;;22.10;;
57319;SDS011;43158;51.026;18.190;2022-11-02T04:01:27;26.90;;;20.60;;
57319;SDS011;43158;51.026;18.190;2022-11-02T04:03:54;23.20;;;20.40;;
57319;SDS011;43158;51.026;18.190;2022-11-02T04:06:20;23.90;;;21.00;;
57319;SDS011;43158;51.026;18.190;2022-11-02T04:08:48;24.50;;;20.80;;
57319;SDS011;43158;51.026;18.190;2022-11-02T04:11:15;27.50;;;21.30;;
57319;SDS011;43158;51.026;18.190;2022-11-02T04:14:00;24.40;;;21.80;;
57319;SDS011;43158;51.026;18.190;2022-11-02T04:16:45;23.40;;;20.90;;
57319;SDS011;43158;51.026;18.190;2022-11-02T04:19:12;23.80;;;21.20;;
57319;SDS011;43158;51.026;18.190;2022-11-02T04:21:59;23.90;;;21.40;;
57319;SDS011;43158;51.026;18.190;2022-11-02T04:24:44;26.10;;;21.20;;
57319;SDS011;43158;51.026;18.190;2022-11-02T04:27:31;26.20;;;20.90;;
57319;SDS011;43158;51.026;18.190;2022-11-02T04:29:58;23.90;;;19.80;;
57319;SDS011;43158;51.026;18.190;2022-11-02T04:32:24;26.70;;;21.90;;
57319;SDS011;43158;51.026;18.190;2022-11-02T04:35:09;31.80;;;21.10;;
57319;SDS011;43158;51.026;18.190;2022-11-02T04:37:40;23.70;;;20.70;;
57319;SDS011;43158;51.026;18.190;2022-11-02T04:40:26;23.60;;;20.00;;
57319;SDS011;43158;51.026;18.190;2022-11-02T04:42:53;24.20;;;20.50;;
57319;SDS011;43158;51.026;18.190;2022-11-02T04:45:20;21.40;;;18.80;;
57319;SDS011;43158;51.026;18.190;2022-11-02T04:47:46;21.80;;;19.50;;
57319;SDS011;43158;51.026;18.190;2022-11-02T04:50:13;22.00;;;19.40;;
57319;SDS011;43158;51.026;18.190;2022-11-02T04:52:40;26.10;;;20.40;;
57319;SDS011;43158;51.026;18.190;2022-11-02T04:55:08;26.30;;;20.60;;
57319;SDS011;43158;51.026;18.190;2022-11-02T04:57:35;27.40;;;20.80;;
57319;SDS011;43158;51.026;18.190;2022-11-02T05:00:05;22.80;;;19.50;;
57319;SDS011;43158;51.026;18.190;2022-11-02T05:02:37;22.60;;;20.20;;
57319;SDS011;43158;51.026;18.190;2022-11-02T05:05:04;22.60;;;19.30;;
57319;SDS011;43158;51.026;18.190;2022-11-02T05:07:31;22.80;;;20.30;;
57319;SDS011;43158;51.026;18.190;2022-11-02T05:09:57;24.30;;;20.20;;
57319;SDS011;43158;51.026;18.190;2022-11-02T05:12:24;22.90;;;19.00;;
57319;SDS011;43158;51.026;18.190;2022-11-02T05:14:50;21.00;;;18.60;;
57319;SDS011;43158;51.026;18.190;2022-11-02T05:17:17;26.00;;;20.10;;
57319;SDS011;43158;51.026;18.190;2022-11-02T05:19:43;22.70;;;19.20;;
57319;SDS011;43158;51.026;18.190;2022-11-02T05:22:09;21.80;;;19.10;;
57319;SDS011;43158;51.026;18.190;2022-11-02T05:24:39;21.80;;;19.40;;
57319;SDS011;43158;51.026;18.190;2022-11-02T05:27:08;24.40;;;19.70;;
57319;SDS011;43158;51.026;18.190;2022-11-02T05:29:35;23.10;;;18.10;;
57319;SDS011;43158;51.026;18.190;2022-11-02T05:32:01;22.60;;;19.20;;
57319;SDS011;43158;51.026;18.190;2022-11-02T05:34:28;20.90;;;18.70;;
57319;SDS011;43158;51.026;18.190;2022-11-02T05:36:58;28.00;;;22.80;;
57319;SDS011;43158;51.026;18.190;2022-11-02T05:39:25;27.00;;;22.20;;
57319;SDS011;43158;51.026;18.190;2022-11-02T05:41:52;23.70;;;21.10;;
57319;SDS011;43158;51.026;18.190;2022-11-02T05:44:19;26.80;;;22.40;;
57319;SDS011;43158;51.026;18.190;2022-11-02T05:46:46;24.50;;;21.90;;
57319;SDS011;43158;51.026;18.190;2022-11-02T05:49:15;26.60;;;23.80;;
57319;SDS011;43158;51.026;18.190;2022-11-02T05:51:44;25.00;;;22.10;;
57319;SDS011;43158;51.026;18.190;2022-11-02T05:54:11;26.90;;;22.70;;
57319;SDS011;43158;51.026;18.190;2022-11-02T05:56:38;24.70;;;21.10;;
57319;SDS011;43158;51.026;18.190;2022-11-02T05:59:12;23.30;;;21.00;;
57319;SDS011;43158;51.026;18.190;2022-11-02T06:01:38;24.10;;;21.20;;
57319;SDS011;43158;51.026;18.190;2022-11-02T06:04:06;24.40;;;21.80;;
57319;SDS011;43158;51.026;18.190;2022-11-02T06:06:34;24.60;;;21.40;;
57319;SDS011;43158;51.026;18.190;2022-11-02T06:09:11;24.40;;;21.40;;
57319;SDS011;43158;51.026;18.190;2022-11-02T06:11:39;23.30;;;20.60;;
57319;SDS011;43158;51.026;18.190;2022-11-02T06:14:14;26.00;;;21.10;;
57319;SDS011;43158;51.026;18.190;2022-11-02T06:16:52;32.50;;;23.10;;
57319;SDS011;43158;51.026;18.190;2022-11-02T06:19:19;24.70;;;21.90;;
57319;SDS011;43158;51.026;18.190;2022-11-02T06:21:46;28.30;;;22.70;;
57319;SDS011;43158;51.026;18.190;2022-11-02T06:24:12;24.20;;;21.60;;
57319;SDS011;43158;51.026;18.190;2022-11-02T06:26:39;26.00;;;22.70;;
57319;SDS011;43158;51.026;18.190;2022-11-02T06:29:05;25.70;;;22.50;;
57319;SDS011;43158;51.026;18.190;2022-11-02T06:31:32;27.60;;;22.20;;
57319;SDS011;43158;51.026;18.190;2022-11-02T06:33:59;29.30;;;22.70;;
57319;SDS011;43158;51.026;18.190;2022-11-02T06:36:25;26.30;;;23.50;;
57319;SDS011;43158;51.026;18.190;2022-11-02T06:38:52;28.70;;;23.90;;
57319;SDS011;43158;51.026;18.190;2022-11-02T06:41:19;25.20;;;22.40;;
57319;SDS011;43158;51.026;18.190;2022-11-02T06:43:51;30.50;;;23.50;;
57319;SDS011;43158;51.026;18.190;2022-11-02T06:46:17;24.60;;;21.10;;
57319;SDS011;43158;51.026;18.190;2022-11-02T06:48:45;24.90;;;21.40;;
57319;SDS011;43158;51.026;18.190;2022-11-02T06:51:12;25.30;;;22.20;;
57319;SDS011;43158;51.026;18.190;2022-11-02T06:53:39;26.30;;;23.40;;
57319;SDS011;43158;51.026;18.190;2022-11-02T06:56:05;25.70;;;22.00;;
57319;SDS011;43158;51.026;18.190;2022-11-02T06:58:32;26.00;;;20.90;;
57319;SDS011;43158;51.026;18.190;2022-11-02T07:01:06;22.60;;;20.20;;
57319;SDS011;43158;51.026;18.190;2022-11-02T07:03:33;21.20;;;18.90;;
57319;SDS011;43158;51.026;18.190;2022-11-02T07:06:00;24.00;;;21.50;;
57319;SDS011;43158;51.026;18.190;2022-11-02T07:08:27;24.50;;;21.10;;
57319;SDS011;43158;51.026;18.190;2022-11-02T07:10:54;23.10;;;20.90;;
57319;SDS011;43158;51.026;18.190;2022-11-02T07:13:21;22.70;;;20.30;;
57319;SDS011;43158;51.026;18.190;2022-11-02T07:15:49;22.80;;;20.20;;
57319;SDS011;43158;51.026;18.190;2022-11-02T07:18:17;20.40;;;18.30;;
57319;SDS011;43158;51.026;18.190;2022-11-02T07:20:43;21.50;;;19.30;;
57319;SDS011;43158;51.026;18.190;2022-11-02T07:23:10;21.70;;;18.40;;
57319;SDS011;43158;51.026;18.190;2022-11-02T07:25:36;22.50;;;19.80;;
57319;SDS011;43158;51.026;18.190;2022-11-02T07:28:03;21.40;;;19.30;;
57319;SDS011;43158;51.026;18.190;2022-11-02T07:30:33;19.30;;;17.50;;
57319;SDS011;43158;51.026;18.190;2022-11-02T07:32:59;21.10;;;18.30;;
57319;SDS011;43158;51.026;18.190;2022-11-02T07:35:25;18.90;;;17.00;;
57319;SDS011;43158;51.026;18.190;2022-11-02T07:37:58;19.30;;;17.50;;
57319;SDS011;43158;51.026;18.190;2022-11-02T07:40:26;18.30;;;16.40;;
57319;SDS011;43158;51.026;18.190;2022-11-02T07:42:52;20.50;;;18.30;;
57319;SDS011;43158;51.026;18.190;2022-11-02T07:45:19;17.50;;;15.60;;
57319;SDS011;43158;51.026;18.190;2022-11-02T07:47:46;14.40;;;12.90;;
57319;SDS011;43158;51.026;18.190;2022-11-02T07:50:14;15.80;;;13.30;;
57319;SDS011;43158;51.026;18.190;2022-11-02T07:52:48;14.90;;;12.80;;
57319;SDS011;43158;51.026;18.190;2022-11-02T07:55:16;13.40;;;10.90;;
57319;SDS011;43158;51.026;18.190;2022-11-02T07:57:51;16.40;;;11.80;;
57319;SDS011;43158;51.026;18.190;2022-11-02T08:00:21;12.30;;;10.10;;
57319;SDS011;43158;51.026;18.190;2022-11-02T08:02:48;14.50;;;10.70;;
57319;SDS011;43158;51.026;18.190;2022-11-02T08:05:15;13.40;;;12.10;;
57319;SDS011;43158;51.026;18.190;2022-11-02T08:07:42;13.40;;;10.50;;
57319;SDS011;43158;51.026;18.190;2022-11-02T08:10:08;11.00;;;10.00;;
57319;SDS011;43158;51.026;18.190;2022-11-02T08:12:35;17.80;;;13.60;;
57319;SDS011;43158;51.026;18.190;2022-11-02T08:15:01;53.60;;;42.80;;
57319;SDS011;43158;51.026;18.190;2022-11-02T08:17:28;13.30;;;12.00;;
57319;SDS011;43158;51.026;18.190;2022-11-02T08:19:54;23.00;;;19.90;;
57319;SDS011;43158;51.026;18.190;2022-11-02T08:22:21;18.70;;;15.90;;
57319;SDS011;43158;51.026;18.190;2022-11-02T08:24:48;39.00;;;32.70;;
57319;SDS011;43158;51.026;18.190;2022-11-02T08:27:14;18.10;;;16.20;;
57319;SDS011;43158;51.026;18.190;2022-11-02T08:29:40;18.50;;;16.60;;
57319;SDS011;43158;51.026;18.190;2022-11-02T08:32:06;25.40;;;21.50;;
57319;SDS011;43158;51.026;18.190;2022-11-02T08:34:32;28.60;;;25.40;;
57319;SDS011;43158;51.026;18.190;2022-11-02T08:36:59;32.20;;;28.60;;
57319;SDS011;43158;51.026;18.190;2022-11-02T08:39:25;27.40;;;22.70;;
57319;SDS011;43158;51.026;18.190;2022-11-02T08:41:51;26.90;;;23.10;;
57319;SDS011;43158;51.026;18.190;2022-11-02T08:44:18;17.40;;;12.60;;
57319;SDS011;43158;51.026;18.190;2022-11-02T08:46:44;20.30;;;18.30;;
57319;SDS011;43158;51.026;18.190;2022-11-02T08:49:11;18.10;;;16.10;;
57319;SDS011;43158;51.026;18.190;2022-11-02T08:51:38;13.40;;;11.70;;
57319;SDS011;43158;51.026;18.190;2022-11-02T08:54:04;16.00;;;14.30;;
57319;SDS011;43158;51.026;18.190;2022-11-02T08:56:30;15.00;;;13.50;;
57319;SDS011;43158;51.026;18.190;2022-11-02T08:58:57;20.60;;;17.50;;
57319;SDS011;43158;51.026;18.190;2022-11-02T09:01:24;17.90;;;16.00;;
57319;SDS011;43158;51.026;18.190;2022-11-02T09:03:51;15.50;;;13.90;;
57319;SDS011;43158;51.026;18.190;2022-11-02T09:06:17;15.50;;;12.90;;
57319;SDS011;43158;51.026;18.190;2022-11-02T09:08:43;16.10;;;13.60;;
57319;SDS011;43158;51.026;18.190;2022-11-02T09:11:10;17.40;;;14.70;;
57319;SDS011;43158;51.026;18.190;2022-11-02T09:13:37;13.10;;;11.20;;
57319;SDS011;43158;51.026;18.190;2022-11-02T09:16:04;17.30;;;14.20;;
57319;SDS011;43158;51.026;18.190;2022-11-02T09:18:31;15.20;;;13.80;;
57319;SDS011;43158;51.026;18.190;2022-11-02T09:21:04;14.10;;;12.60;;
57319;SDS011;43158;51.026;18.190;2022-11-02T09:23:30;12.90;;;10.80;;
57319;SDS011;43158;51.026;18.190;2022-11-02T09:25:57;9.40;;;7.60;;
57319;SDS011;43158;51.026;18.190;2022-11-02T09:28:24;13.00;;;11.70;;
57319;SDS011;43158;51.026;18.190;2022-11-02T09:30:51;11.70;;;7.50;;
57319;SDS011;43158;51.026;18.190;2022-11-02T09:33:17;13.50;;;12.10;;
57319;SDS011;43158;51.026;18.190;2022-11-02T09:35:45;9.40;;;7.00;;
57319;SDS011;43158;51.026;18.190;2022-11-02T09:38:13;11.80;;;9.20;;
57319;SDS011;43158;51.026;18.190;2022-11-02T09:40:44;11.90;;;10.70;;
57319;SDS011;43158;51.026;18.190;2022-11-02T09:46:07;9.10;;;7.20;;
57319;SDS011;43158;51.026;18.190;2022-11-02T09:48:59;8.40;;;5.90;;
57319;SDS011;43158;51.026;18.190;2022-11-02T09:51:53;10.70;;;8.50;;
57319;SDS011;43158;51.026;18.190;2022-11-02T09:54:26;8.60;;;6.30;;
57319;SDS011;43158;51.026;18.190;2022-11-02T09:57:03;12.80;;;10.00;;
57319;SDS011;43158;51.026;18.190;2022-11-02T09:59:37;10.40;;;9.30;;
57319;SDS011;43158;51.026;18.190;2022-11-02T10:16:12;13.80;;;11.00;;
57319;SDS011;43158;51.026;18.190;2022-11-02T10:18:40;8.40;;;7.20;;
57319;SDS011;43158;51.026;18.190;2022-11-02T10:21:09;13.70;;;11.50;;
57319;SDS011;43158;51.026;18.190;2022-11-02T10:23:45;10.20;;;6.80;;
57319;SDS011;43158;51.026;18.190;2022-11-02T10:26:26;7.10;;;5.40;;
57319;SDS011;43158;51.026;18.190;2022-11-02T10:28:58;10.20;;;9.20;;
57319;SDS011;43158;51.026;18.190;2022-11-02T10:31:45;11.40;;;10.30;;
57319;SDS011;43158;51.026;18.190;2022-11-02T10:37:04;12.10;;;8.40;;
57319;SDS011;43158;51.026;18.190;2022-11-02T10:39:42;13.10;;;9.10;;
57319;SDS011;43158;51.026;18.190;2022-11-02T10:47:40;8.00;;;7.00;;
57319;SDS011;43158;51.026;18.190;2022-11-02T10:50:24;9.00;;;5.50;;
57319;SDS011;43158;51.026;18.190;2022-11-02T10:52:53;6.30;;;3.80;;
57319;SDS011;43158;51.026;18.190;2022-11-02T10:58:10;6.70;;;4.70;;
57319;SDS011;43158;51.026;18.190;2022-11-02T11:00:42;6.90;;;3.60;;
57319;SDS011;43158;51.026;18.190;2022-11-02T11:05:53;7.10;;;4.00;;
57319;SDS011;43158;51.026;18.190;2022-11-02T11:11:14;20.40;;;14.90;;
57319;SDS011;43158;51.026;18.190;2022-11-02T11:16:56;10.40;;;8.30;;
57319;SDS011;43158;51.026;18.190;2022-11-02T11:19:37;11.10;;;6.40;;
57319;SDS011;43158;51.026;18.190;2022-11-02T11:22:21;15.10;;;12.10;;
57319;SDS011;43158;51.026;18.190;2022-11-02T11:24:48;5.20;;;3.30;;
57319;SDS011;43158;51.026;18.190;2022-11-02T11:27:19;12.90;;;11.60;;
57319;SDS011;43158;51.026;18.190;2022-11-02T11:29:48;12.80;;;11.10;;
57319;SDS011;43158;51.026;18.190;2022-11-02T11:32:24;9.10;;;7.50;;
57319;SDS011;43158;51.026;18.190;2022-11-02T11:34:53;20.40;;;18.10;;
57319;SDS011;43158;51.026;18.190;2022-11-02T11:37:22;10.90;;;9.20;;
57319;SDS011;43158;51.026;18.190;2022-11-02T11:39:50;13.60;;;9.10;;
57319;SDS011;43158;51.026;18.190;2022-11-02T11:42:21;13.40;;;11.90;;
57319;SDS011;43158;51.026;18.190;2022-11-02T11:44:58;6.50;;;5.80;;
57319;SDS011;43158;51.026;18.190;2022-11-02T11:47:28;9.60;;;7.20;;
57319;SDS011;43158;51.026;18.190;2022-11-02T11:49:58;13.00;;;9.20;;
57319;SDS011;43158;51.026;18.190;2022-11-02T11:52:30;13.40;;;9.20;;
57319;SDS011;43158;51.026;18.190;2022-11-02T11:54:59;15.30;;;13.70;;
57319;SDS011;43158;51.026;18.190;2022-11-02T11:57:46;11.20;;;6.40;;
57319;SDS011;43158;51.026;18.190;2022-11-02T12:00:25;16.70;;;11.80;;
57319;SDS011;43158;51.026;18.190;2022-11-02T12:03:04;11.90;;;9.00;;
57319;SDS011;43158;51.026;18.190;2022-11-02T12:05:58;23.70;;;13.70;;
57319;SDS011;43158;51.026;18.190;2022-11-02T12:11:49;10.20;;;5.30;;
57319;SDS011;43158;51.026;18.190;2022-11-02T12:14:25;18.30;;;13.70;;
57319;SDS011;43158;51.026;18.190;2022-11-02T12:17:08;11.60;;;8.90;;
57319;SDS011;43158;51.026;18.190;2022-11-02T12:28:31;6.20;;;4.30;;
57319;SDS011;43158;51.026;18.190;2022-11-02T12:33:58;10.30;;;6.30;;
57319;SDS011;43158;51.026;18.190;2022-11-02T12:42:12;14.40;;;11.10;;
57319;SDS011;43158;51.026;18.190;2022-11-02T12:47:59;5.90;;;4.20;;
57319;SDS011;43158;51.026;18.190;2022-11-02T12:50:35;9.00;;;5.00;;
57319;SDS011;43158;51.026;18.190;2022-11-02T12:55:57;21.20;;;12.10;;
57319;SDS011;43158;51.026;18.190;2022-11-02T12:58:28;9.70;;;6.00;;
57319;SDS011;43158;51.026;18.190;2022-11-02T13:04:04;11.90;;;9.00;;
57319;SDS011;43158;51.026;18.190;2022-11-02T13:06:36;13.70;;;9.80;;
57319;SDS011;43158;51.026;18.190;2022-11-02T13:11:49;16.60;;;8.10;;
57319;SDS011;43158;51.026;18.190;2022-11-02T13:14:18;16.90;;;12.30;;
57319;SDS011;43158;51.026;18.190;2022-11-02T13:16:52;41.40;;;27.50;;
57319;SDS011;43158;51.026;18.190;2022-11-02T13:19:21;15.20;;;11.20;;
57319;SDS011;43158;51.026;18.190;2022-11-02T13:21:54;18.80;;;15.60;;
57319;SDS011;43158;51.026;18.190;2022-11-02T13:24:22;12.90;;;10.10;;
57319;SDS011;43158;51.026;18.190;2022-11-02T13:26:51;3.60;;;2.10;;
57319;SDS011;43158;51.026;18.190;2022-11-02T13:29:27;10.70;;;7.30;;
57319;SDS011;43158;51.026;18.190;2022-11-02T13:32:16;15.10;;;9.50;;
57319;SDS011;43158;51.026;18.190;2022-11-02T13:34:51;14.80;;;10.80;;
57319;SDS011;43158;51.026;18.190;2022-11-02T13:37:36;18.20;;;11.40;;
57319;SDS011;43158;51.026;18.190;2022-11-02T13:40:10;9.30;;;7.10;;
57319;SDS011;43158;51.026;18.190;2022-11-02T13:45:39;18.70;;;12.70;;
57319;SDS011;43158;51.026;18.190;2022-11-02T13:51:02;8.90;;;4.30;;
57319;SDS011;43158;51.026;18.190;2022-11-02T13:53:38;12.30;;;9.10;;
57319;SDS011;43158;51.026;18.190;2022-11-02T13:56:20;8.60;;;4.90;;
57319;SDS011;43158;51.026;18.190;2022-11-02T13:58:48;6.40;;;4.70;;
57319;SDS011;43158;51.026;18.190;2022-11-02T14:01:20;13.00;;;9.40;;
57319;SDS011;43158;51.026;18.190;2022-11-02T14:03:54;13.90;;;12.00;;
57319;SDS011;43158;51.026;18.190;2022-11-02T14:06:29;6.10;;;2.40;;
57319;SDS011;43158;51.026;18.190;2022-11-02T14:12:38;60.50;;;54.10;;
57319;SDS011;43158;51.026;18.190;2022-11-02T14:30:56;9.20;;;3.20;;
57319;SDS011;43158;51.026;18.190;2022-11-02T14:38:47;8.10;;;7.40;;
57319;SDS011;43158;51.026;18.190;2022-11-02T14:47:01;4.50;;;2.80;;
57319;SDS011;43158;51.026;18.190;2022-11-02T14:49:58;5.10;;;3.70;;
57319;SDS011;43158;51.026;18.190;2022-11-02T14:55:46;8.30;;;4.10;;
57319;SDS011;43158;51.026;18.190;2022-11-02T14:58:18;9.50;;;4.10;;
57319;SDS011;43158;51.026;18.190;2022-11-02T15:00:56;6.00;;;3.50;;
57319;SDS011;43158;51.026;18.190;2022-11-02T15:03:35;6.00;;;3.60;;
57319;SDS011;43158;51.026;18.190;2022-11-02T15:08:59;6.10;;;2.80;;
57319;SDS011;43158;51.026;18.190;2022-11-02T15:19:44;7.70;;;4.60;;
57319;SDS011;43158;51.026;18.190;2022-11-02T15:25:09;9.60;;;6.20;;
57319;SDS011;43158;51.026;18.190;2022-11-02T15:27:44;11.80;;;7.50;;
57319;SDS011;43158;51.026;18.190;2022-11-02T15:30:14;13.60;;;8.40;;
57319;SDS011;43158;51.026;18.190;2022-11-02T15:32:44;10.70;;;6.90;;
57319;SDS011;43158;51.026;18.190;2022-11-02T15:35:21;9.30;;;6.00;;
57319;SDS011;43158;51.026;18.190;2022-11-02T15:37:59;8.30;;;4.90;;
57319;SDS011;43158;51.026;18.190;2022-11-02T15:40:50;8.20;;;5.30;;
57319;SDS011;43158;51.026;18.190;2022-11-02T15:43:40;6.40;;;4.30;;
57319;SDS011;43158;51.026;18.190;2022-11-02T15:46:26;6.60;;;5.30;;
57319;SDS011;43158;51.026;18.190;2022-11-02T15:49:18;9.30;;;6.00;;
57319;SDS011;43158;51.026;18.190;2022-11-02T16:00:25;9.40;;;7.30;;
57319;SDS011;43158;51.026;18.190;2022-11-02T16:02:59;10.70;;;7.40;;
57319;SDS011;43158;51.026;18.190;2022-11-02T16:05:30;9.90;;;7.60;;
57319;SDS011;43158;51.026;18.190;2022-11-02T16:08:03;11.60;;;7.80;;
57319;SDS011;43158;51.026;18.190;2022-11-02T16:10:32;9.70;;;7.00;;
57319;SDS011;43158;51.026;18.190;2022-11-02T16:13:18;15.60;;;9.60;;
57319;SDS011;43158;51.026;18.190;2022-11-02T16:15:49;16.80;;;11.30;;
57319;SDS011;43158;51.026;18.190;2022-11-02T16:18:38;15.40;;;12.80;;
57319;SDS011;43158;51.026;18.190;2022-11-02T16:21:16;13.70;;;11.50;;
57319;SDS011;43158;51.026;18.190;2022-11-02T16:23:45;15.90;;;10.30;;
57319;SDS011;43158;51.026;18.190;2022-11-02T16:26:22;13.90;;;10.80;;
57319;SDS011;43158;51.026;18.190;2022-11-02T16:28:54;14.40;;;11.40;;
57319;SDS011;43158;51.026;18.190;2022-11-02T16:31:24;13.20;;;10.90;;
57319;SDS011;43158;51.026;18.190;2022-11-02T16:33:56;16.10;;;12.90;;
57319;SDS011;43158;51.026;18.190;2022-11-02T16:36:45;18.50;;;13.70;;
57319;SDS011;43158;51.026;18.190;2022-11-02T16:39:31;15.40;;;11.20;;
57319;SDS011;43158;51.026;18.190;2022-11-02T16:42:06;13.60;;;11.90;;
57319;SDS011;43158;51.026;18.190;2022-11-02T16:44:34;19.00;;;12.70;;
57319;SDS011;43158;51.026;18.190;2022-11-02T16:49:33;12.90;;;10.90;;
57319;SDS011;43158;51.026;18.190;2022-11-02T16:54:57;14.10;;;10.40;;
57319;SDS011;43158;51.026;18.190;2022-11-02T16:57:25;13.90;;;9.60;;
57319;SDS011;43158;51.026;18.190;2022-11-02T17:02:28;18.40;;;9.60;;
57319;SDS011;43158;51.026;18.190;2022-11-02T17:05:02;9.70;;;8.40;;
57319;SDS011;43158;51.026;18.190;2022-11-02T17:07:38;10.70;;;8.20;;
57319;SDS011;43158;51.026;18.190;2022-11-02T17:10:06;14.20;;;8.80;;
57319;SDS011;43158;51.026;18.190;2022-11-02T17:12:36;10.80;;;8.50;;
57319;SDS011;43158;51.026;18.190;2022-11-02T17:15:14;11.40;;;7.30;;
57319;SDS011;43158;51.026;18.190;2022-11-02T17:17:42;11.90;;;7.70;;
57319;SDS011;43158;51.026;18.190;2022-11-02T17:25:19;14.10;;;10.10;;
57319;SDS011;43158;51.026;18.190;2022-11-02T17:27:47;10.10;;;8.60;;
57319;SDS011;43158;51.026;18.190;2022-11-02T17:33:21;11.20;;;8.60;;
57319;SDS011;43158;51.026;18.190;2022-11-02T17:35:51;14.20;;;9.10;;
57319;SDS011;43158;51.026;18.190;2022-11-02T17:38:22;10.70;;;8.70;;
57319;SDS011;43158;51.026;18.190;2022-11-02T17:40:50;11.70;;;8.90;;
57319;SDS011;43158;51.026;18.190;2022-11-02T17:43:20;14.10;;;9.80;;
57319;SDS011;43158;51.026;18.190;2022-11-02T17:45:54;12.60;;;10.20;;